Terminal Aerodrome Forecast
Issued by NWS

Home | Current Version | Previous Version | Text Only | Print | Product List | Glossary On
Versions: 1 2 3 4 5 6 7 8 9 10 11 12 13 14 15 16
640
FTUS44 KBMX 272337
TAFANB
TAF
KANB 272337Z 2800/2824 33006KT P6SM FEW070
     FM281200 07003KT P6SM FEW080
     FM281600 10006KT P6SM SCT100=

USA.gov is the U.S. government's official web portal to all federal, state and local government web resources and services.